• Join FlightAware (Why Join?)
  • Login
  • US Flag 
01:07PM EDT


 

Airport Tracker/Info


-or-


 

Live Flight TrackerFlight Track Log ✈ N552XJ ✈ 21-Apr-2013 ✈ KOPF - KBED

Flight Track Log - Related Links

Times and Time Zones

All times are in EDT time to prevent confusion due to time zone crossing. See the N552XJ flight status page for this flight to view local times or setup timezone preferences in your user account.

Time Position Orientation Groundspeed Altitude Reporting Facility
EDT Latitude Longitude Course Direction KTS MPH feet Rate Location/Type
02:35PM 25.9089 -80.2731 81° East 143 165 400  Level Miami Center
02:36PM 25.9139 -80.2386 81° East 192 221 1,800 960 Climbing Miami Center
02:37PM 25.9283 -80.1558 79° East 260 299 2,100 1,260 Climbing Miami Center
02:38PM 25.9364 -80.0775 83° East 264 304 4,600 1,740 Climbing Miami Center
02:38PM 25.9436 -80.0244 81° East 267 307 4,900 420 Climbing Miami Center
02:39PM 25.9464 -80.0014 82° East 262 302 5,000 1,260 Climbing Miami Center
02:39PM 25.9558 -79.9464 79° East 266 306 6,200 1,860 Climbing Miami Center
02:40PM 25.9544 -79.9161 93° East 269 310 6,900 780 Climbing Miami Center
02:40PM 25.9619 -79.8586 82° East 279 321 7,000 780 Climbing Miami Center
02:41PM 25.9750 -79.8311 62° Northeast 270 311 7,700 1,860 Climbing Miami Center
02:41PM 26.0050 -79.7881 52° Northeast 282 325 8,900 2,400 Climbing Miami Center
02:42PM 26.0222 -79.7608 55° Northeast 292 336 10,200 2,880 Climbing Miami Center
02:42PM 26.0525 -79.7083 57° Northeast 314 361 11,800 3,060 Climbing Miami Center
02:43PM 26.1106 -79.6217 53° Northeast 336 387 15,100 2,940 Climbing Miami Center
02:44PM 26.1731 -79.5258 54° Northeast 354 407 17,700 2,580 Climbing Miami Center
02:45PM 26.2353 -79.4256 55° Northeast 370 426 20,300 2,640 Climbing Miami Center
02:46PM 26.2997 -79.3203 56° Northeast 400 460 23,000 2,340 Climbing Miami Center
02:47PM 26.3706 -79.2128 54° Northeast 423 487 25,000 960 Climbing Miami Center
02:48PM 26.4597 -79.1264 41° Northeast 410 472 25,000  Level Miami Center
02:49PM 26.5711 -79.0867 18° North 404 465 25,000  Level Miami Center
02:50PM 26.6844 -79.0514 16° North 404 465 25,100 1,140 Climbing Miami Center
02:51PM 26.7936 -79.0094 19° North 409 471 27,300 2,160 Climbing Miami Center
02:52PM 26.9089 -78.9719 16° North 415 478 29,500 1,920 Climbing Miami Center
02:53PM 27.0267 -78.9319 17° North 422 486 31,200 1,680 Climbing Miami Center
02:54PM 27.1419 -78.8897 18° North 433 498 32,900 1,680 Climbing Miami Center
02:55PM 27.2594 -78.8497 17° North 438 504 34,600 1,500 Climbing Miami Center
02:56PM 27.3792 -78.8097 17° North 445 512 36,000 1,320 Climbing Miami Center
02:57PM 27.4858 -78.7881 10° North 432 497 37,300 1,260 Climbing Miami Center
02:58PM 27.6031 -78.7689 North 432 497 38,600 1,200 Climbing Miami Center
02:59PM 27.7369 -78.7478 North 427 491 39,700 960 Climbing Miami Center
03:00PM 27.8606 -78.7261 North 434 499 40,600 600 Climbing Miami Center
03:01PM 27.9672 -78.7069 North 433 498 41,000 180 Climbing Miami Center
03:02PM 28.0864 -78.6853 North 428 493 41,000  Level Miami Center
03:03PM 28.2078 -78.6636 North 428 493 41,000  Level Miami Center
03:04PM 28.3314 -78.6419 North 434 499 41,000 -60 Level Miami Center
03:05PM 28.3451 -78.6379 North  Level FlightAware Approximate
03:05PM 28.4483 -78.6203 North 434 499 40,900  Level Miami Center
03:06PM 28.5886 -78.5964 North 451 519 41,000  Climbing Miami Center
03:07PM 28.7100 -78.5722 10° North 451 519 41,000  Level Miami Center
03:08PM 28.8375 -78.5528 North 446 513 41,000  Level Miami Center
03:09PM 28.9669 -78.5311 North 451 519 41,000  Level Miami Center
03:10PM 29.0883 -78.5069 10° North 451 519 41,000  Level Miami Center
03:11PM 29.2097 -78.4825 10° North 446 513 41,000  Level Miami Center
03:12PM 29.3350 -78.4583 10° North 451 519 41,000  Level Miami Center
03:15PM 29.6261 -78.4061 North 449 517 41,000  Level Jacksonville Center
03:16PM 29.7528 -78.3836 North 448 516 41,000  Level Jacksonville Center
03:17PM 29.8811 -78.3608 North 459 528 41,000  Level Jacksonville Center
03:18PM 29.9908 -78.3317 13° North 459 528 41,000  Level Jacksonville Center
03:19PM 30.1281 -78.3181 North 472 543 41,000  Level Jacksonville Center
03:20PM 30.2564 -78.2903 11° North 460 529 41,000  Level Jacksonville Center
03:21PM 30.3892 -78.2644 10° North 460 529 41,000  Level Jacksonville Center
03:22PM 30.5194 -78.2294 13° North 465 535 41,000  Level Jacksonville Center
03:23PM 30.6431 -78.1894 16° North 471 542 41,000  Level Jacksonville Center
03:24PM 30.7794 -78.1489 14° North 471 542 41,000  Level Jacksonville Center
03:25PM 30.9094 -78.1086 15° North 476 548 41,000  Level Jacksonville Center
03:26PM 31.0328 -78.0611 18° North 476 548 41,000  Level Jacksonville Center
03:27PM 31.1653 -78.0300 11° North 471 542 41,000  Level Jacksonville Center
03:28PM 31.2928 -77.9819 18° North 471 542 41,000  Level Jacksonville Center
03:29PM 31.4203 -77.9314 19° North 471 542 41,000  Level Jacksonville Center
03:30PM 31.5525 -77.9000 11° North 471 542 41,000  Level Jacksonville Center
03:31PM 31.6844 -77.8564 16° North 476 548 41,000  Level Jacksonville Center
03:32PM 31.8161 -77.8053 18° North 481 554 41,000  Level Jacksonville Center
03:33PM 31.9481 -77.7686 13° North 486 559 41,000  Level Jacksonville Center
03:34PM 32.0778 -77.7222 17° North 486 559 41,000  Level Jacksonville Center
03:35PM 32.2117 -77.6803 15° North 486 559 41,000  Level Jacksonville Center
03:36PM 32.3456 -77.6381 15° North 486 559 41,000  Level Jacksonville Center
03:37PM 32.4794 -77.5933 16° North 486 559 41,000  Level Jacksonville Center
03:38PM 32.6133 -77.5511 15° North 491 565 41,000  Level Jacksonville Center
03:40PM 32.8556 -77.4675 16° North 501 577 41,000  Level Washington Center
03:41PM 32.9917 -77.4261 14° North 496 571 41,000  Level Washington Center
03:42PM 33.1258 -77.3819 15° North 496 571 41,000  Level Washington Center
03:43PM 33.2600 -77.3375 15° North 496 571 41,000  Level Washington Center
03:44PM 33.3942 -77.2906 16° North 496 571 41,000  Level Washington Center
03:45PM 33.5325 -77.2436 16° North 496 571 41,000  Level Washington Center
03:46PM 33.6689 -77.1964 16° North 496 571 41,000  Level Washington Center
03:47PM 33.8028 -77.1514 16° North 496 571 41,000  Level Washington Center
03:48PM 33.9517 -77.1017 15° North 501 577 41,000  Level Washington Center
03:49PM 34.0900 -77.0539 16° North 501 577 41,000  Level Washington Center
03:50PM 34.2239 -77.0061 16° North 496 571 41,000  Level Washington Center
03:51PM 34.3642 -76.9608 15° North 501 577 41,000  Level Washington Center
03:52PM 34.4964 -76.9125 17° North 501 577 41,000  Level Washington Center
03:53PM 34.6322 -76.8692 15° North 496 571 41,000 -60 Level Washington Center
03:54PM 34.7706 -76.8208 16° North 496 571 40,900  Descending Washington Center
03:55PM 34.9025 -76.7722 17° North 496 571 41,000  Climbing Washington Center
03:56PM 35.0386 -76.7261 16° North 496 571 41,000  Level Washington Center
03:57PM 35.1619 -76.6819 16° North 496 571 41,000  Level Washington Center
03:58PM 35.2981 -76.6331 16° North 501 577 41,000  Level Washington Center
03:59PM 35.4447 -76.5814 16° North 495 570 41,000  Level Washington Center
04:00PM 35.5806 -76.5319 16° North 495 570 41,000  Level Washington Center
04:01PM 35.7186 -76.4822 16° North 495 570 41,000  Level Washington Center
04:02PM 35.8547 -76.4353 16° North 500 575 41,000  Level Washington Center
04:03PM 35.9947 -76.3853 16° North 500 575 41,000  Level Washington Center
04:04PM 36.1308 -76.3353 17° North 500 575 41,000  Level Washington Center
04:05PM 36.2708 -76.2875 15° North 505 581 41,000  Level Washington Center
04:06PM 36.4108 -76.2372 16° North 511 588 41,000  Level Washington Center
04:07PM 36.5511 -76.1842 17° North 511 588 41,000  Level Washington Center
04:08PM 36.6889 -76.1383 15° North 511 588 41,000  Level Washington Center
04:09PM 36.8311 -76.0797 18° North 516 594 41,000  Level Washington Center
04:10PM 36.9708 -76.0261 17° North 516 594 41,000  Level Washington Center
04:11PM 37.1172 -75.9772 15° North 529 609 41,000  Level Washington Center
04:12PM 37.2550 -75.9181 19° North 529 609 41,000  Level Washington Center
04:13PM 37.3719 -75.8481 25° Northeast 524 603 41,000  Level Washington Center
04:14PM 37.5056 -75.7672 26° Northeast 518 596 41,000  Level Washington Center
04:15PM 37.6392 -75.6861 26° Northeast 524 603 41,000  Level Washington Center
04:16PM 37.7728 -75.6050 26° Northeast 529 609 41,000  Level Washington Center
04:17PM 37.9042 -75.5206 27° Northeast 529 609 41,000  Level Washington Center
04:18PM 38.0394 -75.4389 25° Northeast 529 609 41,000  Level Washington Center
04:19PM 38.1750 -75.3592 25° Northeast 529 609 41,000  Level Washington Center
04:20PM 38.3083 -75.2794 25° Northeast 529 609 41,000  Level Washington Center
04:21PM 38.4372 -75.1889 29° Northeast 524 603 41,000  Level Washington Center
04:22PM 38.5725 -75.1058 26° Northeast 524 603 41,000  Level Washington Center
04:23PM 38.7075 -75.0250 25° Northeast 524 603 41,000  Level Washington Center
04:24PM 38.8386 -74.9414 26° Northeast 524 603 41,000  Level Washington Center
04:25PM 38.9733 -74.8494 28° Northeast 524 603 41,000  Level Washington Center
04:26PM 39.0978 -74.7492 32° Northeast 529 609 41,000  Level Washington Center
04:27PM 39.2261 -74.6378 34° Northeast 534 615 41,000  Level Washington Center
04:28PM 39.3525 -74.5367 32° Northeast 539 620 41,000  Level Washington Center
04:29PM 39.4767 -74.4300 34° Northeast 539 620 41,000  Level Washington Center
04:29PM 39.5244 -74.3908 32° Northeast 565 650 41,000  Level New York Center
04:30PM 39.6506 -74.2867 32° Northeast 570 656 41,000 -300 Level New York Center
04:31PM 39.7767 -74.1794 33° Northeast 559 643 40,500 -1,740 Descending New York Center
04:32PM 39.8964 -74.0744 34° Northeast 542 624 37,600 -2,880 Descending New York Center
04:33PM 40.0203 -73.9692 33° Northeast 531 611 34,800 -2,340 Descending New York Center
04:34PM 40.1417 -73.8689 32° Northeast 525 604 33,000 -1,020 Descending New York Center
04:35PM 40.2803 -73.7556 32° Northeast 525 604 32,900 -1,980 Descending New York Center
04:37PM 40.5700 -73.4947 34° Northeast 528 608 26,400 -2,700 Descending Boston Center
04:38PM 40.6833 -73.3981 33° Northeast 505 581 23,800 -1,740 Descending Boston Center
04:39PM 40.7903 -73.3064 33° Northeast 479 551 23,000 -900 Descending Boston Center
04:40PM 40.8847 -73.2006 40° Northeast 466 536 22,000 -1,440 Descending Boston Center
04:41PM 40.9772 -73.0917 42° Northeast 458 527 20,200 -1,440 Descending Boston Center
04:42PM 41.0631 -72.9906 42° Northeast 435 501 19,200 -1,140 Descending Boston Center
04:43PM 41.1511 -72.8867 42° Northeast 418 481 18,000 -900 Descending Boston Center
04:44PM 41.2350 -72.7878 42° Northeast 412 474 17,500 -960 Descending Boston Center
04:45PM 41.3142 -72.7000 40° Northeast 384 442 16,100 -1,200 Descending Boston Center
04:46PM 41.4103 -72.6533 20° North 359 413 15,100 -600 Descending Boston Center
04:47PM 41.5083 -72.6092 19° North 364 419 15,000 -60 Descending Boston Center
04:48PM 41.5958 -72.5289 34° Northeast 369 425 15,000 -120 Level Boston Center
04:49PM 41.6731 -72.4539 36° Northeast 379 436 14,800 -900 Descending Boston Center
04:50PM 41.7211 -72.4067 36° Northeast 381 438 13,700 -2,220 Descending Boston Center
04:50PM 41.7647 -72.3678 34° Northeast 379 436 12,600 -1,740 Descending Boston Center
04:51PM 41.8333 -72.2981 37° Northeast 356 410 11,100 -1,260 Descending Boston Center
04:52PM 41.8647 -72.2700 34° Northeast 340 391 11,000 -120 Descending Boston Center
04:52PM 41.9167 -72.2142 39° Northeast 345 397 11,000  Level Boston Center
04:53PM 41.9394 -72.1944 33° Northeast 334 384 11,000 60 Level Boston Center
04:53PM 41.9811 -72.1525 37° Northeast 329 379 11,100 -600 Climbing Boston Center
04:54PM 42.0103 -72.1244 36° Northeast 280 322 10,400 -1,920 Descending Boston Center
04:54PM 42.0475 -72.0850 38° Northeast 284 327 9,200 -1,800 Descending Boston Center
04:55PM 42.0767 -72.0569 36° Northeast 268 308 8,400 -1,500 Descending Boston Center
04:55PM 42.1017 -72.0317 37° Northeast 262 302 7,700 -1,680 Descending Boston Center
04:56PM 42.1328 -72.0006 37° Northeast 254 292 6,700 -1,800 Descending Boston Center
04:56PM 42.1639 -71.9694 37° Northeast 255 293 5,900 -1,680 Descending Boston Center
04:57PM 42.1847 -71.9442 42° Northeast 259 298 5,200 -900 Descending Boston Center
04:57PM 42.2136 -71.9075 43° Northeast 255 293 5,000 -180 Descending Boston Center
04:58PM 42.2739 -71.8397 40° Northeast 260 299 5,000  Level Boston Center
04:59PM 42.3236 -71.7858 39° Northeast 254 292 5,000  Level Boston Center
05:00PM 42.3856 -71.7206 38° Northeast 248 285 5,100  Climbing Boston Center
05:01PM 42.4331 -71.6636 41° Northeast 255 293 5,100 -540 Level Boston Center
05:02PM 42.4953 -71.5953 39° Northeast 255 293 4,100 -720 Descending Boston Center
05:03PM 42.5281 -71.5300 56° Northeast 242 278 3,700 -540 Descending Boston Center
05:04PM 42.5356 -71.4258 84° East 242 278 3,100 -540 Descending Boston Center
05:05PM 42.5333 -71.3833 94° East 256 295 3,000 -120 Descending KA90
05:06PM 42.5333 -71.3000 90° East 224 258 3,000 -720 Level KA90
05:07PM 42.5333 -71.2333 90° East 221 254 1,700 -960 Descending KA90
05:08PM 42.4833 -71.2167 166° South 188 216 1,100 -600 Descending KA90
05:09PM 42.4667 -71.2667 246° West 168 193 400 -720 Descending KA90